createdAt,value
2022-12-31T00:00:19.390Z,167.63
2022-12-31T00:02:46.262Z,167.07
2022-12-31T00:05:13.768Z,159.90
2022-12-31T00:10:06.491Z,151.00
2022-12-31T00:12:33.232Z,162.50
2022-12-31T00:15:00.028Z,163.43
2022-12-31T00:17:26.884Z,167.00
2022-12-31T00:19:53.623Z,153.65
2022-12-31T00:22:22.551Z,166.93
2022-12-31T00:24:49.332Z,153.38
2022-12-31T00:27:16.359Z,160.77
2022-12-31T00:29:43.069Z,157.10
2022-12-31T00:32:09.748Z,147.52
2022-12-31T00:34:36.448Z,148.32
2022-12-31T00:37:03.175Z,156.15
2022-12-31T00:39:30.097Z,146.00
2022-12-31T00:41:56.797Z,154.80
2022-12-31T00:44:23.553Z,151.13
2022-12-31T00:46:50.287Z,146.65
2022-12-31T00:49:17.134Z,157.05
2022-12-31T00:51:43.936Z,147.20
2022-12-31T00:54:10.710Z,156.13
2022-12-31T00:56:37.425Z,159.95
2022-12-31T00:59:04.532Z,147.70
2022-12-31T01:01:37.018Z,150.40
2022-12-31T01:04:06.972Z,154.85
2022-12-31T01:06:33.882Z,153.88
2022-12-31T01:09:00.739Z,152.32
2022-12-31T01:11:30.832Z,144.23
2022-12-31T01:14:00.467Z,159.65
2022-12-31T01:16:37.564Z,152.10
2022-12-31T01:19:07.118Z,147.18
2022-12-31T01:21:36.285Z,145.02
2022-12-31T01:24:03.575Z,159.10
2022-12-31T01:26:30.901Z,145.30
2022-12-31T01:28:57.779Z,159.93
2022-12-31T01:31:25.491Z,152.48
2022-12-31T01:33:53.320Z,146.73
2022-12-31T01:36:26.837Z,145.40
2022-12-31T01:38:58.869Z,151.25
2022-12-31T01:41:33.395Z,148.77
2022-12-31T01:44:25.936Z,143.07
2022-12-31T01:46:59.379Z,142.18
2022-12-31T01:49:27.769Z,150.90
2022-12-31T01:52:02.898Z,150.45
2022-12-31T01:54:34.040Z,149.45
2022-12-31T01:57:01.679Z,146.27
2022-12-31T01:59:29.924Z,154.27
2022-12-31T02:01:57.083Z,149.18
2022-12-31T02:04:25.806Z,151.07
2022-12-31T02:07:00.958Z,150.27
2022-12-31T02:09:27.711Z,138.45
2022-12-31T02:11:54.482Z,142.88
2022-12-31T02:14:25.954Z,155.35
2022-12-31T02:17:07.521Z,150.10
2022-12-31T02:19:51.205Z,135.50
2022-12-31T02:22:20.925Z,155.15
2022-12-31T02:25:09.720Z,134.52
2022-12-31T02:27:52.557Z,149.43
2022-12-31T02:30:25.010Z,138.35
2022-12-31T02:33:00.129Z,146.70
2022-12-31T02:36:01.130Z,141.38
2022-12-31T02:38:33.876Z,146.80
2022-12-31T02:41:01.257Z,143.07
2022-12-31T02:43:28.389Z,139.75
2022-12-31T02:45:58.186Z,145.38
2022-12-31T02:48:34.001Z,139.38
2022-12-31T02:51:26.741Z,148.32
2022-12-31T02:54:09.308Z,141.00
2022-12-31T02:57:00.670Z,149.93
2022-12-31T03:00:07.615Z,150.85
2022-12-31T03:02:37.010Z,152.68
2022-12-31T03:05:04.100Z,155.55
2022-12-31T03:07:32.946Z,167.75
2022-12-31T03:10:03.933Z,156.68
2022-12-31T03:12:48.896Z,161.90
2022-12-31T03:15:23.780Z,159.60
2022-12-31T03:18:04.247Z,143.85
2022-12-31T03:20:59.179Z,153.77
2022-12-31T03:23:30.389Z,160.90
2022-12-31T03:25:58.583Z,145.00
2022-12-31T03:28:28.238Z,151.55
2022-12-31T03:30:58.359Z,153.52
2022-12-31T03:33:26.147Z,143.93
2022-12-31T03:35:53.515Z,150.25
2022-12-31T03:38:21.024Z,157.73
2022-12-31T03:40:50.406Z,147.55
2022-12-31T03:43:19.395Z,152.43
2022-12-31T03:45:51.770Z,152.98
2022-12-31T03:48:20.131Z,163.23
2022-12-31T03:50:46.873Z,152.23
2022-12-31T03:53:13.852Z,145.35
2022-12-31T03:55:40.729Z,161.00
2022-12-31T03:58:07.700Z,161.52
2022-12-31T04:00:35.068Z,150.23
2022-12-31T04:03:02.050Z,154.50
2022-12-31T04:05:28.843Z,163.13
2022-12-31T04:07:56.563Z,151.23
2022-12-31T04:10:25.939Z,155.45
2022-12-31T04:12:52.690Z,159.85
2022-12-31T04:15:20.728Z,165.68
2022-12-31T04:17:48.247Z,160.70
2022-12-31T04:20:16.325Z,146.98
2022-12-31T04:22:44.125Z,147.57
2022-12-31T04:25:11.734Z,150.73
2022-12-31T04:27:40.893Z,144.23
2022-12-31T04:30:09.779Z,150.18
2022-12-31T04:32:36.541Z,160.00
2022-12-31T04:35:03.647Z,142.73
2022-12-31T04:37:30.386Z,156.45
2022-12-31T04:40:03.520Z,147.70
2022-12-31T04:42:32.414Z,163.40
2022-12-31T04:44:59.286Z,151.25
2022-12-31T04:47:25.998Z,146.82
2022-12-31T04:49:52.721Z,170.15
2022-12-31T04:52:19.448Z,166.57
2022-12-31T04:54:46.152Z,166.75
2022-12-31T04:57:12.913Z,148.18
2022-12-31T04:59:39.827Z,164.73
2022-12-31T05:02:06.828Z,159.27
2022-12-31T05:04:33.725Z,150.55
2022-12-31T05:07:00.497Z,156.50
2022-12-31T05:09:28.432Z,150.55
2022-12-31T05:11:55.241Z,152.68
2022-12-31T05:14:21.993Z,153.15
2022-12-31T05:16:48.876Z,164.98
2022-12-31T05:19:18.185Z,149.35
2022-12-31T05:22:04.931Z,163.57
2022-12-31T05:24:31.874Z,165.65
2022-12-31T05:26:58.673Z,152.85
2022-12-31T05:29:26.089Z,161.82
2022-12-31T05:31:52.968Z,155.60
2022-12-31T05:34:19.730Z,152.25
2022-12-31T05:36:46.441Z,159.52
2022-12-31T05:39:13.188Z,156.45
2022-12-31T05:41:39.929Z,148.45
2022-12-31T05:44:06.661Z,157.27
2022-12-31T05:46:33.435Z,154.10
2022-12-31T05:49:00.170Z,148.48
2022-12-31T05:51:26.875Z,158.23
2022-12-31T05:53:53.767Z,152.38
2022-12-31T05:56:21.888Z,147.65
2022-12-31T05:58:48.606Z,159.18
2022-12-31T06:01:15.420Z,153.80
2022-12-31T06:03:42.197Z,155.45
2022-12-31T06:06:08.988Z,165.93
2022-12-31T06:08:35.743Z,162.77
2022-12-31T06:11:02.559Z,154.45
2022-12-31T06:13:29.948Z,160.30
2022-12-31T06:15:56.865Z,154.05
2022-12-31T06:18:23.680Z,151.10
2022-12-31T06:20:50.372Z,170.35
2022-12-31T06:23:17.111Z,168.45
2022-12-31T06:25:43.858Z,155.90
2022-12-31T06:28:16.143Z,316.80
2022-12-31T06:30:47.304Z,154.27
2022-12-31T06:33:14.153Z,150.02
2022-12-31T06:35:40.872Z,175.52
2022-12-31T06:38:07.797Z,168.45
2022-12-31T06:40:37.511Z,184.18
2022-12-31T06:43:05.824Z,169.38
2022-12-31T06:45:32.542Z,177.18
2022-12-31T06:47:59.233Z,163.85
2022-12-31T06:50:25.959Z,173.43
2022-12-31T06:52:53.715Z,169.63
2022-12-31T06:55:20.841Z,156.93
2022-12-31T06:57:50.493Z,154.10
2022-12-31T07:00:17.939Z,162.35
2022-12-31T07:03:21.312Z,172.95
2022-12-31T07:06:20.365Z,158.88
2022-12-31T07:09:03.736Z,153.40
2022-12-31T07:11:52.566Z,167.50
2022-12-31T07:14:40.648Z,165.32
2022-12-31T07:17:22.581Z,167.27
2022-12-31T07:19:57.756Z,169.02
2022-12-31T07:22:25.188Z,166.70
2022-12-31T07:24:52.390Z,154.02
2022-12-31T07:27:37.483Z,156.82
2022-12-31T07:30:15.753Z,172.82
2022-12-31T07:33:15.077Z,166.75
2022-12-31T07:36:00.143Z,174.30
2022-12-31T07:39:08.502Z,180.65
2022-12-31T07:41:55.976Z,156.18
2022-12-31T07:44:45.530Z,174.40
2022-12-31T07:47:22.093Z,156.90
2022-12-31T07:49:49.078Z,166.30
2022-12-31T07:52:16.172Z,161.30
2022-12-31T07:54:43.143Z,163.95
2022-12-31T07:57:12.438Z,158.93
2022-12-31T07:59:54.496Z,174.85
2022-12-31T08:02:30.408Z,160.38
2022-12-31T08:05:04.277Z,160.82
2022-12-31T08:07:42.713Z,156.18
2022-12-31T08:10:25.605Z,159.18
2022-12-31T08:13:00.598Z,158.35
2022-12-31T08:15:30.603Z,151.95
2022-12-31T08:17:58.052Z,162.63
2022-12-31T08:20:26.411Z,162.43
2022-12-31T08:23:11.665Z,160.43
2022-12-31T08:26:13.706Z,169.32
2022-12-31T08:29:14.350Z,164.70
2022-12-31T08:31:54.425Z,157.77
2022-12-31T08:34:30.297Z,157.25
2022-12-31T08:37:24.993Z,160.60
2022-12-31T08:40:11.066Z,159.48
2022-12-31T08:43:12.679Z,167.95
2022-12-31T08:45:43.585Z,170.18
2022-12-31T08:48:39.697Z,159.82
2022-12-31T08:51:12.825Z,161.90
2022-12-31T08:53:39.939Z,166.80
2022-12-31T08:56:29.923Z,168.65
2022-12-31T08:59:14.777Z,157.05
2022-12-31T09:01:59.418Z,169.95
2022-12-31T09:04:43.883Z,163.75
2022-12-31T09:07:12.677Z,158.32
2022-12-31T09:09:39.677Z,172.30
2022-12-31T09:12:38.117Z,174.15
2022-12-31T09:15:37.041Z,170.25
2022-12-31T09:18:04.125Z,171.55
2022-12-31T09:20:42.735Z,164.05
2022-12-31T09:23:12.181Z,161.52
2022-12-31T09:25:58.642Z,168.98
2022-12-31T09:28:39.613Z,163.95
2022-12-31T09:31:15.655Z,168.00
2022-12-31T09:33:55.746Z,165.45
2022-12-31T09:36:30.465Z,164.98
2022-12-31T09:39:00.358Z,267.38
2022-12-31T09:41:30.231Z,171.90
2022-12-31T09:44:34.462Z,184.98
2022-12-31T09:47:36.228Z,198.15
2022-12-31T09:50:21.140Z,187.43
2022-12-31T09:53:16.244Z,173.43
2022-12-31T09:55:54.939Z,170.93
2022-12-31T09:58:36.920Z,169.43
2022-12-31T10:01:19.049Z,174.45
2022-12-31T10:04:00.717Z,176.63
2022-12-31T10:06:37.462Z,164.75
2022-12-31T10:09:25.670Z,168.52
2022-12-31T10:12:13.654Z,163.93
2022-12-31T10:14:53.917Z,173.02
2022-12-31T10:17:41.863Z,176.70
2022-12-31T10:20:25.506Z,154.57
2022-12-31T10:23:20.990Z,170.40
2022-12-31T10:25:51.457Z,189.48
2022-12-31T10:28:41.097Z,182.43
2022-12-31T10:31:28.630Z,185.95
2022-12-31T10:34:16.139Z,166.23
2022-12-31T10:36:53.329Z,176.27
2022-12-31T10:39:46.331Z,175.73
2022-12-31T10:42:34.831Z,181.45
2022-12-31T10:45:17.133Z,176.02
2022-12-31T10:48:05.649Z,165.23
2022-12-31T10:51:07.579Z,163.30
2022-12-31T10:54:02.264Z,190.00
2022-12-31T10:56:53.895Z,181.07
2022-12-31T10:59:54.728Z,179.80
2022-12-31T11:02:40.083Z,166.50
2022-12-31T11:05:21.894Z,169.82
2022-12-31T11:08:25.895Z,184.45
2022-12-31T11:10:55.790Z,175.00
2022-12-31T11:13:46.854Z,186.90
2022-12-31T11:16:24.526Z,175.98
2022-12-31T11:18:57.417Z,174.18
2022-12-31T11:21:30.944Z,179.35
2022-12-31T11:24:24.735Z,174.48
2022-12-31T11:26:57.448Z,175.45
2022-12-31T11:29:51.628Z,185.93
2022-12-31T11:32:56.112Z,185.80
2022-12-31T11:35:28.609Z,181.15
2022-12-31T11:38:30.805Z,178.88
2022-12-31T11:41:11.716Z,184.98
2022-12-31T11:43:50.636Z,171.55
2022-12-31T11:46:29.527Z,172.68
2022-12-31T11:49:23.712Z,241.32
2022-12-31T11:52:05.743Z,179.32
2022-12-31T11:54:51.063Z,189.85
2022-12-31T11:57:29.990Z,179.55
2022-12-31T12:00:21.275Z,181.55
2022-12-31T12:02:55.385Z,188.23
2022-12-31T12:05:24.300Z,188.13
2022-12-31T12:07:52.769Z,188.00
2022-12-31T12:10:44.763Z,191.07
2022-12-31T12:13:17.686Z,203.10
2022-12-31T12:16:05.839Z,196.95
2022-12-31T12:19:02.149Z,198.02
2022-12-31T12:21:29.254Z,203.93
2022-12-31T12:23:58.569Z,197.70
2022-12-31T12:26:30.620Z,202.60
2022-12-31T12:29:01.490Z,194.63
2022-12-31T12:31:28.345Z,201.88
2022-12-31T12:33:55.207Z,201.75
2022-12-31T12:36:22.096Z,205.38
2022-12-31T12:39:00.060Z,197.93
2022-12-31T12:41:27.771Z,210.30
2022-12-31T12:44:13.768Z,213.98
2022-12-31T12:46:49.235Z,204.38
2022-12-31T12:49:43.958Z,217.70
2022-12-31T12:52:22.093Z,209.23
2022-12-31T12:55:19.259Z,220.77
2022-12-31T12:58:02.924Z,226.13
2022-12-31T13:00:46.889Z,226.00
2022-12-31T13:04:32.570Z,216.60
2022-12-31T13:07:06.046Z,210.25
2022-12-31T13:09:59.099Z,211.90
2022-12-31T13:16:12.310Z,217.27
2022-12-31T13:18:48.072Z,210.63
2022-12-31T13:21:21.076Z,220.20
2022-12-31T13:23:57.573Z,220.90
2022-12-31T13:26:42.699Z,220.00
2022-12-31T13:29:19.024Z,204.90
2022-12-31T13:31:47.558Z,210.40
2022-12-31T13:34:19.301Z,207.45
2022-12-31T13:36:48.805Z,213.02
2022-12-31T13:39:29.404Z,212.73
2022-12-31T13:42:02.409Z,205.65
2022-12-31T13:44:36.131Z,204.60
2022-12-31T13:47:13.098Z,201.23
2022-12-31T13:49:39.806Z,201.00
2022-12-31T13:52:24.715Z,206.90
2022-12-31T13:55:15.424Z,201.75
2022-12-31T13:57:47.262Z,207.70
2022-12-31T14:00:25.443Z,200.18
2022-12-31T14:03:22.108Z,202.63
2022-12-31T14:06:13.414Z,201.82
2022-12-31T14:08:41.348Z,200.00
2022-12-31T14:11:14.297Z,201.50
2022-12-31T14:13:49.937Z,205.73
2022-12-31T14:16:16.765Z,199.45
2022-12-31T14:18:57.656Z,200.07
2022-12-31T14:21:34.129Z,204.50
2022-12-31T14:24:22.402Z,199.40
2022-12-31T14:26:56.867Z,204.48
2022-12-31T14:29:32.832Z,194.85
2022-12-31T14:34:45.458Z,205.13
2022-12-31T14:37:28.014Z,199.10
2022-12-31T14:40:19.883Z,200.32
2022-12-31T14:43:12.607Z,201.23
2022-12-31T14:46:12.616Z,218.55
2022-12-31T14:48:57.833Z,205.32
2022-12-31T14:51:30.993Z,206.93
2022-12-31T14:53:58.891Z,198.07
2022-12-31T14:56:37.649Z,207.20
2022-12-31T14:59:21.697Z,197.23
2022-12-31T15:01:48.518Z,205.85
2022-12-31T15:04:15.349Z,205.25
2022-12-31T15:06:58.627Z,201.48
2022-12-31T15:09:50.606Z,207.35
2022-12-31T15:12:29.361Z,214.95
2022-12-31T15:15:11.380Z,205.00
2022-12-31T15:17:48.909Z,202.73
2022-12-31T15:20:33.669Z,206.73
2022-12-31T15:23:00.597Z,207.38
2022-12-31T15:25:35.244Z,206.75
2022-12-31T15:28:11.097Z,203.68
2022-12-31T15:30:44.490Z,207.95
2022-12-31T15:33:30.030Z,199.85
2022-12-31T15:35:58.048Z,202.52
2022-12-31T15:38:36.142Z,195.60
2022-12-31T15:41:19.585Z,195.43
2022-12-31T15:43:51.824Z,191.15
2022-12-31T15:46:34.199Z,203.93
2022-12-31T15:49:15.653Z,197.98
2022-12-31T15:52:04.797Z,200.52
2022-12-31T15:54:44.743Z,190.73
2022-12-31T15:57:21.010Z,200.80
2022-12-31T15:59:47.893Z,192.30
2022-12-31T16:02:21.985Z,194.45
2022-12-31T16:04:49.606Z,195.23
2022-12-31T16:07:17.443Z,191.68
2022-12-31T16:09:49.683Z,194.13
2022-12-31T16:12:23.675Z,204.82
2022-12-31T16:14:55.603Z,190.63
2022-12-31T16:17:34.272Z,199.90
2022-12-31T16:20:20.139Z,200.73
2022-12-31T16:22:56.284Z,206.23
2022-12-31T16:27:59.462Z,197.02
2022-12-31T16:30:31.193Z,210.15
2022-12-31T16:33:04.809Z,213.90
2022-12-31T16:35:34.432Z,198.35
2022-12-31T16:38:15.283Z,203.02
2022-12-31T16:40:44.536Z,204.70
2022-12-31T16:43:36.475Z,218.27
2022-12-31T16:46:11.308Z,211.95
2022-12-31T16:48:38.604Z,206.75
2022-12-31T16:51:06.160Z,205.88
2022-12-31T16:53:38.128Z,208.70
2022-12-31T16:56:09.150Z,202.30
2022-12-31T16:58:45.422Z,210.48
2022-12-31T17:01:18.357Z,206.50
2022-12-31T17:03:50.981Z,205.48
2022-12-31T17:06:20.045Z,205.45
2022-12-31T17:09:04.534Z,220.50
2022-12-31T17:11:31.368Z,205.38
2022-12-31T17:14:09.557Z,207.98
2022-12-31T17:17:02.554Z,212.85
2022-12-31T17:19:46.723Z,201.32
2022-12-31T17:22:35.859Z,204.60
2022-12-31T17:25:10.896Z,217.95
2022-12-31T17:27:37.676Z,213.63
2022-12-31T17:30:40.299Z,204.00
2022-12-31T17:33:27.808Z,227.20
2022-12-31T17:35:57.175Z,215.95
2022-12-31T17:38:23.865Z,231.43
2022-12-31T17:40:53.680Z,222.73
2022-12-31T17:43:22.949Z,232.80
2022-12-31T17:45:54.443Z,236.63
2022-12-31T17:48:24.452Z,230.80
2022-12-31T17:50:53.657Z,226.10
2022-12-31T17:53:20.929Z,219.82
2022-12-31T17:55:50.040Z,228.43
2022-12-31T17:58:55.882Z,222.73
2022-12-31T18:01:23.704Z,227.95
2022-12-31T18:03:50.669Z,234.68
2022-12-31T18:06:19.621Z,211.93
2022-12-31T18:08:46.974Z,211.95
2022-12-31T18:11:22.278Z,221.95
2022-12-31T18:13:49.847Z,229.00
2022-12-31T18:16:17.273Z,218.95
2022-12-31T18:18:45.495Z,228.05
2022-12-31T18:21:35.965Z,236.40
2022-12-31T18:26:32.740Z,238.38
2022-12-31T18:29:09.084Z,223.05
2022-12-31T18:34:02.812Z,241.25
2022-12-31T18:36:29.537Z,227.60
2022-12-31T18:38:56.309Z,221.88
2022-12-31T18:41:32.648Z,225.27
2022-12-31T18:43:59.373Z,228.73
2022-12-31T18:46:27.058Z,232.18
2022-12-31T18:48:53.844Z,219.82
2022-12-31T18:51:31.420Z,227.80
2022-12-31T18:54:02.934Z,219.43
2022-12-31T18:56:29.850Z,220.85
2022-12-31T18:58:56.752Z,213.85
2022-12-31T19:01:28.197Z,227.45
2022-12-31T19:04:00.549Z,222.35
2022-12-31T19:06:28.554Z,223.25
2022-12-31T19:08:55.823Z,213.10
2022-12-31T19:11:23.069Z,229.25
2022-12-31T19:13:50.379Z,223.57
2022-12-31T19:16:18.030Z,224.60
2022-12-31T19:18:45.391Z,220.50
2022-12-31T19:21:18.506Z,213.25
2022-12-31T19:23:46.245Z,217.68
2022-12-31T19:26:20.623Z,212.63
2022-12-31T19:28:49.212Z,219.82
2022-12-31T19:31:16.419Z,217.23
2022-12-31T19:33:44.134Z,211.80
2022-12-31T19:36:18.420Z,217.40
2022-12-31T19:38:45.784Z,214.32
2022-12-31T19:41:18.243Z,214.57
2022-12-31T19:43:46.167Z,210.75
2022-12-31T19:46:19.192Z,208.77
2022-12-31T19:48:46.740Z,206.63
2022-12-31T19:51:19.057Z,216.60
2022-12-31T19:53:47.507Z,217.38
2022-12-31T19:56:16.826Z,217.23
2022-12-31T19:58:44.101Z,221.65
2022-12-31T20:01:22.692Z,221.70
2022-12-31T20:03:55.071Z,226.15
2022-12-31T20:06:21.743Z,216.80
2022-12-31T20:08:50.747Z,220.27
2022-12-31T20:11:23.857Z,232.27
2022-12-31T20:13:52.397Z,226.73
2022-12-31T20:16:21.327Z,218.52
2022-12-31T20:18:48.510Z,229.27
2022-12-31T20:21:21.646Z,235.00
2022-12-31T20:23:53.990Z,231.48
2022-12-31T20:26:22.177Z,220.35
2022-12-31T20:28:52.615Z,225.25
2022-12-31T20:31:24.301Z,221.02
2022-12-31T20:33:51.757Z,214.32
2022-12-31T20:36:18.613Z,210.02
2022-12-31T20:38:48.999Z,202.57
2022-12-31T20:41:20.722Z,219.60
2022-12-31T20:43:48.253Z,211.15
2022-12-31T20:46:20.095Z,225.63
2022-12-31T20:48:48.751Z,224.93
2022-12-31T20:51:16.713Z,222.43
2022-12-31T20:53:52.102Z,215.13
2022-12-31T20:56:19.246Z,208.00
2022-12-31T20:58:47.964Z,186.15
2022-12-31T21:01:16.002Z,208.63
2022-12-31T21:06:32.040Z,204.40
2022-12-31T21:09:00.710Z,193.23
2022-12-31T21:11:46.271Z,196.98
2022-12-31T21:14:13.272Z,181.38
2022-12-31T21:16:39.968Z,185.00
2022-12-31T21:19:12.823Z,201.32
2022-12-31T21:21:39.528Z,190.60
2022-12-31T21:24:09.492Z,202.20
2022-12-31T21:26:38.961Z,191.95
2022-12-31T21:29:05.713Z,203.18
2022-12-31T21:31:35.481Z,193.48
2022-12-31T21:34:02.242Z,202.27
2022-12-31T21:36:28.936Z,195.80
2022-12-31T21:38:58.187Z,205.55
2022-12-31T21:41:43.389Z,210.63
2022-12-31T21:44:10.159Z,197.60
2022-12-31T21:46:42.619Z,205.68
2022-12-31T21:49:21.561Z,197.70
2022-12-31T21:52:06.742Z,203.15
2022-12-31T21:54:52.501Z,191.63
2022-12-31T21:57:21.271Z,187.35
2022-12-31T22:00:40.522Z,193.77
2022-12-31T22:03:16.457Z,174.43
2022-12-31T22:06:00.007Z,177.80
2022-12-31T22:08:28.232Z,176.23
2022-12-31T22:10:55.229Z,178.38
2022-12-31T22:13:23.553Z,178.70
2022-12-31T22:16:01.767Z,179.80
2022-12-31T22:18:34.108Z,175.70
2022-12-31T22:21:17.380Z,175.02
2022-12-31T22:23:45.439Z,171.27
2022-12-31T22:26:14.356Z,173.05
2022-12-31T22:28:42.749Z,162.27
2022-12-31T22:31:13.705Z,167.18
2022-12-31T22:33:40.550Z,175.55
2022-12-31T22:36:12.108Z,182.55
2022-12-31T22:38:39.067Z,180.43
2022-12-31T22:41:09.293Z,188.45
2022-12-31T22:43:39.469Z,194.10
2022-12-31T22:46:15.319Z,181.70
2022-12-31T22:48:42.581Z,177.20
2022-12-31T22:51:10.663Z,185.57
2022-12-31T22:53:39.608Z,199.48
2022-12-31T22:56:07.239Z,176.45
2022-12-31T22:58:34.030Z,175.43
2022-12-31T23:01:04.486Z,178.95
2022-12-31T23:03:31.365Z,194.00
2022-12-31T23:05:58.108Z,199.80
2022-12-31T23:08:24.871Z,205.38
2022-12-31T23:11:05.663Z,210.35
2022-12-31T23:13:57.835Z,193.02
2022-12-31T23:16:45.614Z,194.40
2022-12-31T23:19:31.501Z,217.38
2022-12-31T23:22:17.048Z,233.63
2022-12-31T23:24:43.791Z,249.98
2022-12-31T23:27:11.145Z,240.15
2022-12-31T23:29:46.268Z,262.23
2022-12-31T23:34:46.360Z,242.98
2022-12-31T23:37:14.643Z,262.48
2022-12-31T23:39:42.186Z,221.98
2022-12-31T23:42:09.202Z,229.68
2022-12-31T23:44:36.103Z,224.82
2022-12-31T23:47:02.980Z,234.85
2022-12-31T23:49:30.166Z,212.85
2022-12-31T23:51:56.914Z,229.27
2022-12-31T23:54:23.764Z,229.15
2022-12-31T23:56:50.435Z,215.65
2022-12-31T23:59:18.497Z,200.80
